Time;durP1;ratioP1;P1;durP2;ratioP2;P2;SDS_P1;SDS_P2;PMS_P1;PMS_P2;Temp;Humidity;BMP_temperature;BMP_pressure;BME280_temperature;BME280_humidity;BME280_pressure;Samples;Min_cycle;Max_cycle;Signal;HPM_P1;HPM_P2
2021/11/03 00:00:10;;;;;;;;;;;13.70;46.60;;;;;;4391218;32;19966;-46
2021/11/03 00:02:36;;;;;;;;;;;13.70;46.30;;;;;;4376738;32;20447;-44
2021/11/03 00:05:03;;;;;;;;;;;13.70;46.30;;;;;;4364965;32;19968;-41
2021/11/03 00:07:29;;;;;;;;;;;13.70;46.10;;;;;;4377241;32;19970;-43
2021/11/03 00:09:58;;;;;;;;;;;13.70;46.00;;;;;;4391185;32;20020;-43
2021/11/03 00:12:24;;;;;;;;;;;13.70;45.70;;;;;;4377281;32;19964;-43
2021/11/03 00:14:50;;;;;;;;;;;13.60;45.50;;;;;;4377143;32;19962;-44
2021/11/03 00:17:16;;;;;;;;;;;13.60;45.40;;;;;;4390621;32;19977;-42
2021/11/03 00:19:43;;;;;;;;;;;13.50;45.40;;;;;;4391377;32;19962;-43
2021/11/03 00:22:09;;;;;;;;;;;13.40;45.60;;;;;;4390878;32;20383;-42
2021/11/03 00:24:37;;;;;;;;;;;13.40;45.70;;;;;;4390980;32;20074;-43
2021/11/03 00:27:03;;;;;;;;;;;13.40;45.80;;;;;;4391073;32;20037;-43
2021/11/03 00:29:29;;;;;;;;;;;13.30;45.70;;;;;;4376971;32;19977;-43
2021/11/03 00:31:56;;;;;;;;;;;13.30;45.80;;;;;;4358128;32;20046;-43
2021/11/03 00:34:22;;;;;;;;;;;13.30;45.80;;;;;;4358253;32;19991;-43
2021/11/03 00:36:48;;;;;;;;;;;13.30;45.60;;;;;;4358360;32;20004;-44
2021/11/03 00:39:14;;;;;;;;;;;13.20;45.70;;;;;;4358214;32;20437;-44
2021/11/03 00:41:40;;;;;;;;;;;13.20;45.70;;;;;;4357994;32;19978;-41
2021/11/03 00:44:07;;;;;;;;;;;13.10;45.70;;;;;;4358303;32;20352;-44
2021/11/03 00:46:33;;;;;;;;;;;13.10;45.40;;;;;;4346135;32;19974;-42
2021/11/03 00:48:59;;;;;;;;;;;12.90;45.40;;;;;;4343365;33;19974;-42
2021/11/03 00:51:25;;;;;;;;;;;12.80;45.60;;;;;;4342976;33;19994;-43
2021/11/03 00:53:51;;;;;;;;;;;12.80;45.60;;;;;;4343143;33;20102;-42
2021/11/03 00:56:18;;;;;;;;;;;12.70;45.80;;;;;;4343571;33;19993;-40
2021/11/03 00:58:44;;;;;;;;;;;12.70;45.80;;;;;;4343408;33;19971;-43
2021/11/03 01:01:10;;;;;;;;;;;12.70;45.70;;;;;;4343193;33;19974;-44
2021/11/03 01:03:36;;;;;;;;;;;12.70;45.80;;;;;;4367970;32;20008;-43
2021/11/03 01:06:03;;;;;;;;;;;12.60;45.80;;;;;;4375368;32;20039;-43
2021/11/03 01:08:29;;;;;;;;;;;12.60;45.90;;;;;;4375216;32;19978;-42
2021/11/03 01:10:55;;;;;;;;;;;12.50;45.90;;;;;;4374885;32;20062;-41
2021/11/03 01:13:23;;;;;;;;;;;12.50;46.00;;;;;;4375020;32;20328;-43
2021/11/03 01:15:49;;;;;;;;;;;12.40;46.10;;;;;;4375372;32;20067;-39
2021/11/03 01:18:15;;;;;;;;;;;12.40;46.50;;;;;;4361557;32;19962;-44
2021/11/03 01:20:42;;;;;;;;;;;12.40;46.60;;;;;;4361220;32;19977;-43
2021/11/03 01:23:09;;;;;;;;;;;12.30;46.60;;;;;;4360807;32;19965;-42
2021/11/03 01:25:35;;;;;;;;;;;12.20;46.70;;;;;;4374967;32;19958;-44
2021/11/03 01:28:02;;;;;;;;;;;12.20;46.90;;;;;;4361404;32;19973;-44
2021/11/03 01:30:29;;;;;;;;;;;12.10;47.00;;;;;;4375208;32;19970;-45
2021/11/03 01:32:56;;;;;;;;;;;12.00;47.30;;;;;;4374876;32;20370;-41
2021/11/03 01:35:22;;;;;;;;;;;11.90;47.40;;;;;;4375158;32;19990;-43
2021/11/03 01:37:49;;;;;;;;;;;11.90;47.50;;;;;;4375205;32;19985;-38
2021/11/03 01:40:17;;;;;;;;;;;11.80;47.70;;;;;;4348450;32;20459;-43
2021/11/03 01:42:43;;;;;;;;;;;11.70;47.70;;;;;;4360512;32;20390;-44
2021/11/03 01:45:10;;;;;;;;;;;11.70;47.70;;;;;;4374335;32;19965;-43
2021/11/03 01:47:45;;;;;;;;;;;11.60;47.70;;;;;;4374451;32;20095;-43
2021/11/03 01:50:32;;;;;;;;;;;11.50;47.60;;;;;;4374674;32;20013;-43
2021/11/03 01:53:19;;;;;;;;;;;11.50;47.50;;;;;;4362734;32;19997;-43
2021/11/03 01:55:54;;;;;;;;;;;11.40;47.50;;;;;;4356851;32;20359;-42
2021/11/03 01:58:31;;;;;;;;;;;11.30;47.30;;;;;;4344873;32;19974;-43
2021/11/03 02:00:57;;;;;;;;;;;11.30;47.30;;;;;;4333284;32;20000;-42
2021/11/03 02:03:26;;;;;;;;;;;11.20;47.40;;;;;;4344216;32;20431;-43
2021/11/03 02:06:13;;;;;;;;;;;11.20;47.30;;;;;;4332236;32;19985;-40
2021/11/03 02:08:41;;;;;;;;;;;11.20;47.20;;;;;;4356793;32;20051;-43
2021/11/03 02:11:08;;;;;;;;;;;11.20;47.30;;;;;;4344962;32;20076;-43
2021/11/03 02:13:35;;;;;;;;;;;11.20;47.40;;;;;;4356967;32;19970;-44
2021/11/03 02:16:01;;;;;;;;;;;11.10;47.40;;;;;;4344784;32;20508;-43
2021/11/03 02:18:28;;;;;;;;;;;11.20;47.40;;;;;;4356572;32;20053;-45
2021/11/03 02:20:54;;;;;;;;;;;11.10;47.40;;;;;;4352592;32;20479;-42
2021/11/03 02:23:28;;;;;;;;;;;11.10;47.40;;;;;;4372529;32;19993;-48
2021/11/03 02:26:09;;;;;;;;;;;11.10;47.60;;;;;;4359660;32;20064;-45
2021/11/03 02:28:37;;;;;;;;;;;11.00;47.60;;;;;;4359521;32;19962;-47
2021/11/03 02:31:03;;;;;;;;;;;11.00;47.70;;;;;;4347138;32;19970;-45
2021/11/03 02:33:30;;;;;;;;;;;11.00;47.80;;;;;;4373077;32;19970;-44
2021/11/03 02:36:00;;;;;;;;;;;11.00;47.70;;;;;;4374142;32;19958;-43
2021/11/03 02:38:40;;;;;;;;;;;10.90;47.60;;;;;;4374349;32;19976;-43
2021/11/03 02:41:12;;;;;;;;;;;10.80;47.50;;;;;;4373677;32;20458;-45
2021/11/03 02:43:42;;;;;;;;;;;10.80;47.60;;;;;;4373777;32;20101;-46
2021/11/03 02:46:09;;;;;;;;;;;10.70;47.50;;;;;;4373940;32;19973;-47
2021/11/03 02:48:36;;;;;;;;;;;10.70;47.50;;;;;;4374020;32;20426;-46
2021/11/03 02:51:08;;;;;;;;;;;10.60;47.00;;;;;;4373884;32;19978;-46
2021/11/03 02:53:37;;;;;;;;;;;10.50;47.10;;;;;;4373700;32;19977;-47
2021/11/03 02:56:04;;;;;;;;;;;10.50;47.20;;;;;;4374026;32;19993;-44
2021/11/03 02:58:30;;;;;;;;;;;10.50;47.20;;;;;;4373696;32;19978;-48
2021/11/03 03:00:57;;;;;;;;;;;10.40;46.90;;;;;;4373838;32;19966;-47
2021/11/03 03:03:23;;;;;;;;;;;10.40;46.90;;;;;;4373585;32;20410;-46
2021/11/03 03:06:01;;;;;;;;;;;10.40;46.70;;;;;;4373649;32;20382;-45
2021/11/03 03:08:27;;;;;;;;;;;10.30;46.70;;;;;;4360112;32;20402;-44
2021/11/03 03:10:53;;;;;;;;;;;10.30;46.50;;;;;;4373829;32;19969;-43
2021/11/03 03:13:20;;;;;;;;;;;10.20;46.50;;;;;;4373298;32;19959;-45
2021/11/03 03:15:46;;;;;;;;;;;10.20;46.60;;;;;;4373606;32;19986;-44
2021/11/03 03:18:12;;;;;;;;;;;10.10;46.20;;;;;;4373258;32;19977;-44
2021/11/03 03:20:38;;;;;;;;;;;10.10;46.40;;;;;;4373343;32;19986;-47
2021/11/03 03:23:04;;;;;;;;;;;10.00;46.40;;;;;;4373607;32;20051;-47
2021/11/03 03:25:31;;;;;;;;;;;9.90;46.40;;;;;;4373200;32;20398;-46
2021/11/03 03:27:58;;;;;;;;;;;9.90;46.60;;;;;;4373244;32;20077;-46
2021/11/03 03:30:24;;;;;;;;;;;9.90;46.70;;;;;;4373805;32;20033;-46
2021/11/03 03:32:50;;;;;;;;;;;9.90;46.80;;;;;;4376163;32;20395;-45
2021/11/03 03:35:17;;;;;;;;;;;9.90;46.80;;;;;;4376809;32;19990;-44
2021/11/03 03:37:43;;;;;;;;;;;9.90;46.90;;;;;;4376275;32;19970;-46
2021/11/03 03:40:10;;;;;;;;;;;9.90;46.70;;;;;;4376088;32;19985;-44
2021/11/03 03:42:36;;;;;;;;;;;9.80;46.60;;;;;;4376379;32;20046;-46
2021/11/03 03:45:04;;;;;;;;;;;9.80;46.70;;;;;;4378859;32;19958;-45
2021/11/03 03:47:30;;;;;;;;;;;9.70;46.70;;;;;;4377608;32;19965;-44
2021/11/03 03:49:56;;;;;;;;;;;9.70;46.70;;;;;;4391468;32;19966;-45
2021/11/03 03:52:22;;;;;;;;;;;9.70;46.70;;;;;;4390688;32;19997;-48
2021/11/03 03:54:49;;;;;;;;;;;9.60;46.70;;;;;;4391156;32;19969;-47
2021/11/03 03:57:15;;;;;;;;;;;9.50;46.80;;;;;;4390888;32;19981;-46
2021/11/03 03:59:41;;;;;;;;;;;9.50;46.70;;;;;;4390967;32;20439;-46
2021/11/03 04:02:07;;;;;;;;;;;9.50;46.70;;;;;;4391285;32;19974;-46
2021/11/03 04:04:34;;;;;;;;;;;9.40;46.80;;;;;;4390891;32;19974;-46
2021/11/03 04:07:00;;;;;;;;;;;9.40;46.80;;;;;;4391662;32;19986;-46
2021/11/03 04:09:26;;;;;;;;;;;9.40;46.90;;;;;;4391410;32;19998;-47
2021/11/03 04:11:52;;;;;;;;;;;9.40;46.90;;;;;;4390903;32;19973;-47
2021/11/03 04:14:18;;;;;;;;;;;9.40;46.90;;;;;;4391015;32;20503;-48
2021/11/03 04:16:45;;;;;;;;;;;9.40;46.90;;;;;;4390944;32;19981;-44
2021/11/03 04:19:11;;;;;;;;;;;9.40;46.90;;;;;;4390683;32;19961;-47
2021/11/03 04:21:37;;;;;;;;;;;9.40;46.90;;;;;;4376767;32;19985;-46
2021/11/03 04:24:04;;;;;;;;;;;9.40;46.90;;;;;;4390978;32;19981;-44
2021/11/03 04:26:33;;;;;;;;;;;9.40;46.90;;;;;;4390610;32;20381;-45
2021/11/03 04:29:00;;;;;;;;;;;9.40;47.00;;;;;;4391281;32;20014;-42
2021/11/03 04:31:26;;;;;;;;;;;9.30;47.00;;;;;;4390657;32;19962;-49
2021/11/03 04:33:52;;;;;;;;;;;9.30;47.10;;;;;;4391016;32;20011;-46
2021/11/03 04:36:19;;;;;;;;;;;9.30;46.90;;;;;;4390604;32;20378;-44
2021/11/03 04:38:47;;;;;;;;;;;9.20;47.00;;;;;;4390524;32;19991;-47
2021/11/03 04:41:13;;;;;;;;;;;9.10;47.00;;;;;;4390446;32;19981;-46
2021/11/03 04:43:39;;;;;;;;;;;9.10;47.00;;;;;;4390686;32;20052;-47
2021/11/03 04:46:05;;;;;;;;;;;9.20;47.00;;;;;;4381616;32;19978;-47
2021/11/03 04:48:31;;;;;;;;;;;9.10;46.90;;;;;;4375352;32;19982;-43
2021/11/03 04:50:58;;;;;;;;;;;9.10;47.10;;;;;;4375416;32;19986;-47
2021/11/03 04:53:24;;;;;;;;;;;9.10;47.20;;;;;;4375448;32;20399;-48
2021/11/03 04:55:52;;;;;;;;;;;9.10;47.30;;;;;;4375581;32;19966;-48
2021/11/03 04:58:18;;;;;;;;;;;9.10;47.30;;;;;;4375498;32;19969;-47
2021/11/03 05:00:46;;;;;;;;;;;9.00;47.30;;;;;;4375435;32;19973;-46
2021/11/03 05:03:12;;;;;;;;;;;9.00;47.30;;;;;;4374981;32;19968;-46
2021/11/03 05:05:39;;;;;;;;;;;8.90;47.30;;;;;;4375148;32;19994;-48
2021/11/03 05:08:05;;;;;;;;;;;8.90;47.50;;;;;;4375244;32;19981;-48
2021/11/03 05:10:32;;;;;;;;;;;8.90;47.60;;;;;;4375194;32;19969;-50
2021/11/03 05:12:58;;;;;;;;;;;8.90;47.70;;;;;;4375286;32;19962;-50
2021/11/03 05:15:24;;;;;;;;;;;8.90;47.70;;;;;;4375172;32;19957;-47
2021/11/03 05:17:51;;;;;;;;;;;9.00;47.80;;;;;;4374797;32;20042;-43
2021/11/03 05:20:17;;;;;;;;;;;8.90;47.60;;;;;;4374502;32;19973;-47
2021/11/03 05:22:44;;;;;;;;;;;9.00;47.60;;;;;;4374975;32;20042;-50
2021/11/03 05:25:11;;;;;;;;;;;9.00;47.60;;;;;;4375222;32;19959;-50
2021/11/03 05:27:38;;;;;;;;;;;9.00;47.60;;;;;;4360701;32;20393;-49
2021/11/03 05:30:04;;;;;;;;;;;9.00;47.50;;;;;;4371351;32;19978;-43
2021/11/03 05:32:30;;;;;;;;;;;9.10;47.50;;;;;;4372440;32;20042;-47
2021/11/03 05:34:57;;;;;;;;;;;9.10;47.40;;;;;;4372009;32;19984;-47
2021/11/03 05:37:23;;;;;;;;;;;9.10;47.30;;;;;;4372266;32;19993;-48
2021/11/03 05:39:49;;;;;;;;;;;9.10;47.30;;;;;;4372126;32;20509;-46
2021/11/03 05:42:15;;;;;;;;;;;9.10;47.10;;;;;;4372082;32;20009;-44
2021/11/03 05:44:42;;;;;;;;;;;9.20;47.10;;;;;;4372132;32;20021;-51
2021/11/03 05:47:09;;;;;;;;;;;9.20;46.70;;;;;;4372569;32;19985;-51
2021/11/03 05:49:36;;;;;;;;;;;9.10;46.70;;;;;;4347478;32;19962;-49
2021/11/03 05:52:03;;;;;;;;;;;9.20;46.60;;;;;;4372036;32;19978;-45
2021/11/03 05:54:31;;;;;;;;;;;9.20;47.50;;;;;;4371533;32;19974;-46
2021/11/03 05:56:58;;;;;;;;;;;9.20;46.70;;;;;;4371294;32;19998;-48
2021/11/03 05:59:24;;;;;;;;;;;9.20;46.20;;;;;;4371802;32;20066;-47
2021/11/03 06:01:50;;;;;;;;;;;9.20;45.50;;;;;;4371832;32;19969;-45
2021/11/03 06:04:16;;;;;;;;;;;9.20;45.30;;;;;;4389331;32;19986;-45
2021/11/03 06:06:43;;;;;;;;;;;9.10;45.40;;;;;;4389352;32;19970;-46
2021/11/03 06:09:09;;;;;;;;;;;9.10;45.10;;;;;;4389029;32;19962;-46
2021/11/03 06:11:38;;;;;;;;;;;9.10;44.50;;;;;;4389102;32;19961;-41
2021/11/03 06:14:05;;;;;;;;;;;9.10;44.60;;;;;;4389263;32;20397;-46
2021/11/03 06:16:31;;;;;;;;;;;9.00;44.40;;;;;;4389086;32;19977;-43
2021/11/03 06:18:58;;;;;;;;;;;9.00;44.70;;;;;;4375279;32;19972;-47
2021/11/03 06:21:24;;;;;;;;;;;9.00;44.20;;;;;;4388736;32;19962;-46
2021/11/03 06:23:50;;;;;;;;;;;9.10;44.00;;;;;;4388714;32;20411;-47
2021/11/03 06:26:19;;;;;;;;;;;9.10;43.90;;;;;;4388813;32;19966;-47
2021/11/03 06:28:45;;;;;;;;;;;9.10;43.50;;;;;;4374754;32;19977;-47
2021/11/03 06:31:12;;;;;;;;;;;9.10;43.60;;;;;;4388812;32;20409;-45
2021/11/03 06:33:38;;;;;;;;;;;9.20;43.50;;;;;;4388593;32;20446;-44
2021/11/03 06:36:05;;;;;;;;;;;9.20;43.50;;;;;;4389231;32;19961;-46
2021/11/03 06:38:32;;;;;;;;;;;9.30;43.30;;;;;;4389075;32;19981;-47
2021/11/03 06:40:59;;;;;;;;;;;9.30;42.60;;;;;;4388837;32;19982;-48
2021/11/03 06:43:26;;;;;;;;;;;9.30;42.50;;;;;;4388620;32;19961;-48
2021/11/03 06:45:52;;;;;;;;;;;9.30;42.50;;;;;;4380657;32;19969;-48
2021/11/03 06:48:18;;;;;;;;;;;9.40;42.50;;;;;;4371949;32;19993;-46
2021/11/03 06:50:45;;;;;;;;;;;9.40;42.30;;;;;;4372973;32;19962;-48
2021/11/03 06:53:15;;;;;;;;;;;9.50;42.40;;;;;;4373093;32;19970;-46
2021/11/03 06:55:41;;;;;;;;;;;9.50;42.20;;;;;;4373559;32;19965;-45
2021/11/03 06:58:08;;;;;;;;;;;9.60;41.70;;;;;;4373494;32;20050;-48
2021/11/03 07:00:38;;;;;;;;;;;9.60;41.20;;;;;;4373496;32;20358;-46
2021/11/03 07:03:04;;;;;;;;;;;9.60;41.50;;;;;;4373539;32;20367;-45
2021/11/03 07:05:31;;;;;;;;;;;9.70;41.20;;;;;;4373123;32;20385;-44
2021/11/03 07:07:57;;;;;;;;;;;9.70;40.80;;;;;;4373264;32;19985;-43
2021/11/03 07:10:26;;;;;;;;;;;9.70;41.00;;;;;;4373288;32;19959;-47
2021/11/03 07:12:53;;;;;;;;;;;9.80;40.70;;;;;;4373370;32;19970;-46
2021/11/03 07:15:19;;;;;;;;;;;9.90;40.70;;;;;;4372745;32;20430;-43
2021/11/03 07:17:45;;;;;;;;;;;9.90;40.10;;;;;;4373239;32;20069;-45
2021/11/03 07:20:12;;;;;;;;;;;10.00;41.00;;;;;;4376754;32;19953;-45
2021/11/03 07:22:38;;;;;;;;;;;10.00;40.50;;;;;;4388495;32;20442;-45
2021/11/03 07:25:05;;;;;;;;;;;10.10;39.10;;;;;;4374242;32;20343;-45
2021/11/03 07:27:31;;;;;;;;;;;10.10;39.80;;;;;;4388175;32;19970;-45
2021/11/03 07:29:57;;;;;;;;;;;10.20;39.80;;;;;;4388154;32;20431;-46
2021/11/03 07:32:23;;;;;;;;;;;10.20;39.40;;;;;;4388590;32;19973;-44
2021/11/03 07:34:49;;;;;;;;;;;10.20;39.00;;;;;;4374342;32;19977;-45
2021/11/03 07:37:16;;;;;;;;;;;10.20;39.20;;;;;;4373946;32;19964;-44
2021/11/03 07:39:42;;;;;;;;;;;10.20;38.60;;;;;;4387755;32;19962;-46
2021/11/03 07:42:08;;;;;;;;;;;10.20;38.60;;;;;;4388302;32;20057;-44
2021/11/03 07:44:34;;;;;;;;;;;10.30;38.30;;;;;;4388122;32;19986;-45
2021/11/03 07:47:01;;;;;;;;;;;10.30;38.70;;;;;;4359560;32;20420;-44
2021/11/03 07:49:27;;;;;;;;;;;10.40;38.70;;;;;;4373083;32;19986;-44
2021/11/03 07:51:53;;;;;;;;;;;10.50;38.80;;;;;;4372651;32;20440;-45
2021/11/03 07:54:20;;;;;;;;;;;10.60;38.90;;;;;;4372961;32;20414;-45
2021/11/03 07:56:47;;;;;;;;;;;10.70;38.60;;;;;;4372737;32;20391;-44
2021/11/03 07:59:14;;;;;;;;;;;10.70;38.00;;;;;;4372904;32;19966;-43
2021/11/03 08:01:40;;;;;;;;;;;10.80;37.10;;;;;;4372982;32;20067;-45
2021/11/03 08:04:08;;;;;;;;;;;10.80;36.90;;;;;;4372915;32;19966;-45
2021/11/03 08:06:35;;;;;;;;;;;10.90;37.60;;;;;;4373130;32;19969;-44
2021/11/03 08:09:04;;;;;;;;;;;10.90;37.70;;;;;;4373090;32;20374;-44
2021/11/03 08:11:46;;;;;;;;;;;11.00;37.50;;;;;;4359017;32;19984;-44
2021/11/03 08:14:13;;;;;;;;;;;11.00;36.40;;;;;;4373202;32;19965;-41
2021/11/03 08:17:09;;;;;;;;;;;11.10;36.40;;;;;;4374124;32;19973;-44
2021/11/03 08:19:40;;;;;;;;;;;11.00;36.50;;;;;;4375752;32;20057;-43
2021/11/03 08:22:07;;;;;;;;;;;11.00;36.70;;;;;;4342688;33;19982;-45
2021/11/03 08:24:34;;;;;;;;;;;11.00;36.90;;;;;;4343162;33;20083;-44
2021/11/03 08:27:00;;;;;;;;;;;11.00;36.80;;;;;;4343119;33;19975;-43
2021/11/03 08:29:27;;;;;;;;;;;11.10;37.10;;;;;;4330599;33;20048;-44
2021/11/03 08:31:56;;;;;;;;;;;11.10;36.90;;;;;;4342971;33;19967;-46
2021/11/03 08:34:23;;;;;;;;;;;11.20;36.70;;;;;;4343146;33;19966;-43
2021/11/03 08:36:50;;;;;;;;;;;11.20;36.90;;;;;;4330679;33;19982;-41
2021/11/03 08:39:16;;;;;;;;;;;11.20;36.90;;;;;;4318995;33;19982;-44
2021/11/03 08:41:42;;;;;;;;;;;11.20;36.00;;;;;;4343132;33;19994;-43
2021/11/03 08:44:08;;;;;;;;;;;11.20;36.10;;;;;;4343065;33;19986;-43
2021/11/03 08:46:35;;;;;;;;;;;11.20;35.90;;;;;;4354541;32;20135;-43
2021/11/03 08:49:02;;;;;;;;;;;11.20;36.00;;;;;;4345730;32;20395;-43
2021/11/03 08:51:29;;;;;;;;;;;11.20;36.00;;;;;;4357799;32;20534;-44
2021/11/03 08:53:56;;;;;;;;;;;11.20;36.20;;;;;;4384957;32;20045;-44
2021/11/03 08:56:23;;;;;;;;;;;11.10;36.00;;;;;;4389909;32;19986;-43
2021/11/03 08:58:50;;;;;;;;;;;11.10;35.70;;;;;;4390277;32;19973;-43
2021/11/03 09:01:16;;;;;;;;;;;11.00;35.90;;;;;;4375540;32;19995;-42
2021/11/03 09:03:42;;;;;;;;;;;11.00;36.30;;;;;;4389879;32;19969;-44
2021/11/03 09:06:09;;;;;;;;;;;11.10;36.00;;;;;;4389404;32;20421;-44
2021/11/03 09:08:41;;;;;;;;;;;11.00;35.80;;;;;;4390041;32;19965;-44
2021/11/03 09:11:07;;;;;;;;;;;11.00;35.70;;;;;;4390016;32;20050;-44
2021/11/03 09:13:34;;;;;;;;;;;11.00;35.80;;;;;;4389452;32;20365;-43
2021/11/03 09:16:01;;;;;;;;;;;11.00;35.80;;;;;;4389763;32;20047;-43
2021/11/03 09:18:29;;;;;;;;;;;11.10;35.60;;;;;;4389606;32;19966;-43
2021/11/03 09:20:55;;;;;;;;;;;11.00;35.70;;;;;;4372925;32;20041;-43
2021/11/03 09:23:22;;;;;;;;;;;11.10;35.90;;;;;;4375042;32;19966;-42
2021/11/03 09:25:48;;;;;;;;;;;11.10;35.30;;;;;;4375119;32;20041;-43
2021/11/03 09:28:15;;;;;;;;;;;11.10;35.30;;;;;;4374650;32;20075;-43
2021/11/03 09:30:41;;;;;;;;;;;11.20;35.30;;;;;;4374532;32;19997;-40
2021/11/03 09:33:08;;;;;;;;;;;11.20;35.20;;;;;;4374589;32;19986;-42
2021/11/03 09:35:45;;;;;;;;;;;11.10;35.50;;;;;;4374537;32;20417;-41
2021/11/03 09:38:14;;;;;;;;;;;11.20;35.50;;;;;;4374787;32;19969;-42
2021/11/03 09:40:58;;;;;;;;;;;11.20;35.40;;;;;;4374299;32;19970;-43
2021/11/03 09:43:29;;;;;;;;;;;11.20;35.70;;;;;;4372462;32;20407;-41
2021/11/03 09:45:58;;;;;;;;;;;11.40;35.50;;;;;;4374658;32;19962;-40
2021/11/03 09:48:30;;;;;;;;;;;11.40;35.50;;;;;;4360390;32;20362;-42
2021/11/03 09:50:59;;;;;;;;;;;11.50;35.20;;;;;;4374494;32;19965;-41
2021/11/03 09:53:45;;;;;;;;;;;11.60;34.80;;;;;;4374036;32;19980;-40
2021/11/03 09:56:23;;;;;;;;;;;11.70;34.30;;;;;;4374227;32;20418;-42
2021/11/03 09:59:04;;;;;;;;;;;11.80;33.40;;;;;;4360412;32;19976;-41
2021/11/03 10:02:14;;;;;;;;;;;11.80;33.80;;;;;;4372700;32;20011;-43
2021/11/03 10:05:05;;;;;;;;;;;11.90;34.00;;;;;;4340413;32;19966;-43
2021/11/03 10:08:03;;;;;;;;;;;12.00;34.00;;;;;;4373831;32;19973;-42
2021/11/03 10:10:39;;;;;;;;;;;12.10;33.90;;;;;;4373846;32;19978;-44
2021/11/03 10:13:18;;;;;;;;;;;12.20;33.60;;;;;;4373875;32;20370;-43
2021/11/03 10:16:04;;;;;;;;;;;12.30;33.30;;;;;;4374474;32;19969;-42
2021/11/03 10:18:33;;;;;;;;;;;12.40;32.50;;;;;;4359948;32;19962;-44
2021/11/03 10:21:18;;;;;;;;;;;12.50;32.70;;;;;;4373945;32;20406;-41
2021/11/03 10:23:56;;;;;;;;;;;12.50;32.50;;;;;;4359341;32;20037;-44
2021/11/03 10:26:23;;;;;;;;;;;12.60;32.60;;;;;;4373591;32;19989;-42
2021/11/03 10:28:52;;;;;;;;;;;12.60;32.20;;;;;;4374266;32;20386;-43
2021/11/03 10:31:21;;;;;;;;;;;12.70;32.00;;;;;;4373874;32;19989;-45
2021/11/03 10:33:48;;;;;;;;;;;12.70;32.10;;;;;;4374265;32;19974;-44
2021/11/03 10:36:17;;;;;;;;;;;12.60;31.80;;;;;;4359907;32;20004;-43
2021/11/03 10:39:01;;;;;;;;;;;12.60;32.10;;;;;;4373705;32;19978;-42
2021/11/03 10:41:32;;;;;;;;;;;12.50;32.20;;;;;;4374018;32;20411;-43
2021/11/03 10:44:06;;;;;;;;;;;12.50;32.50;;;;;;4373658;32;20037;-42
2021/11/03 10:46:40;;;;;;;;;;;12.50;32.50;;;;;;4373577;32;19989;-42
2021/11/03 10:49:31;;;;;;;;;;;12.50;32.80;;;;;;4371724;32;20434;-43
2021/11/03 10:52:00;;;;;;;;;;;12.50;32.80;;;;;;4373294;32;20011;-42
2021/11/03 10:54:37;;;;;;;;;;;12.50;33.10;;;;;;4373376;32;20453;-41
2021/11/03 10:57:21;;;;;;;;;;;12.60;33.00;;;;;;4373502;32;20030;-41
2021/11/03 10:59:55;;;;;;;;;;;12.60;33.10;;;;;;4372083;32;20411;-41
2021/11/03 11:02:24;;;;;;;;;;;12.70;33.00;;;;;;4373617;32;20426;-41
2021/11/03 11:04:50;;;;;;;;;;;12.70;32.90;;;;;;4372330;32;19985;-42
2021/11/03 11:07:23;;;;;;;;;;;12.70;32.90;;;;;;4371578;32;20381;-42
2021/11/03 11:10:20;;;;;;;;;;;12.70;33.20;;;;;;4372139;32;20382;-41
2021/11/03 11:12:48;;;;;;;;;;;12.70;33.30;;;;;;4373174;32;20397;-41
2021/11/03 11:15:14;;;;;;;;;;;12.80;33.10;;;;;;4371503;32;20004;-41
2021/11/03 11:18:22;;;;;;;;;;;12.80;33.30;;;;;;4373339;32;19974;-41
2021/11/03 11:20:52;;;;;;;;;;;12.80;33.30;;;;;;4361607;32;20048;-42
2021/11/03 11:23:25;;;;;;;;;;;12.80;33.50;;;;;;4389091;32;20363;-41
2021/11/03 11:26:05;;;;;;;;;;;12.80;33.30;;;;;;4374506;32;19973;-42
2021/11/03 11:28:53;;;;;;;;;;;12.90;33.20;;;;;;4388232;32;19967;-41
2021/11/03 11:31:48;;;;;;;;;;;12.90;33.30;;;;;;4361848;32;20015;-42
2021/11/03 11:34:33;;;;;;;;;;;12.90;33.20;;;;;;4375616;32;20107;-42
2021/11/03 11:37:32;;;;;;;;;;;12.90;33.40;;;;;;4388243;32;20480;-42
2021/11/03 11:40:01;;;;;;;;;;;12.90;33.50;;;;;;4388233;32;19970;-41
2021/11/03 11:42:36;;;;;;;;;;;12.90;33.30;;;;;;4388413;32;19954;-42
2021/11/03 11:45:17;;;;;;;;;;;12.90;33.30;;;;;;4371632;32;20379;-40
2021/11/03 11:47:48;;;;;;;;;;;13.00;33.50;;;;;;4359654;32;19970;-42
2021/11/03 11:50:39;;;;;;;;;;;12.90;33.10;;;;;;4359214;32;19992;-40
2021/11/03 11:53:19;;;;;;;;;;;12.90;33.00;;;;;;4386703;32;19969;-41
2021/11/03 11:56:06;;;;;;;;;;;12.80;32.80;;;;;;4361929;32;20010;-42
2021/11/03 11:58:34;;;;;;;;;;;12.70;32.90;;;;;;4362481;32;19957;-42
2021/11/03 12:01:14;;;;;;;;;;;12.70;32.90;;;;;;4376244;32;19970;-43
2021/11/03 12:04:02;;;;;;;;;;;12.60;32.90;;;;;;4361526;32;19959;-44
2021/11/03 12:06:46;;;;;;;;;;;12.50;33.10;;;;;;4375976;32;19990;-41
2021/11/03 12:09:36;;;;;;;;;;;12.40;33.30;;;;;;4362249;32;20046;-41
2021/11/03 12:12:05;;;;;;;;;;;12.40;33.50;;;;;;4361795;32;20418;-41
2021/11/03 12:14:51;;;;;;;;;;;12.30;33.60;;;;;;4375839;32;19966;-41
2021/11/03 12:17:19;;;;;;;;;;;12.30;33.70;;;;;;4376034;32;19988;-42
2021/11/03 12:19:53;;;;;;;;;;;12.20;33.50;;;;;;4375847;32;19997;-41
2021/11/03 12:22:28;;;;;;;;;;;12.10;33.60;;;;;;4375460;32;19985;-43
2021/11/03 12:24:56;;;;;;;;;;;12.10;33.60;;;;;;4376047;32;20422;-47
2021/11/03 12:27:23;;;;;;;;;;;12.10;33.80;;;;;;4361687;32;20068;-43
2021/11/03 12:30:10;;;;;;;;;;;12.00;33.70;;;;;;4357568;32;20124;-42
2021/11/03 12:32:45;;;;;;;;;;;11.90;33.80;;;;;;4357712;32;20422;-43
2021/11/03 12:35:17;;;;;;;;;;;11.90;33.90;;;;;;4358161;32;19975;-43
2021/11/03 12:37:48;;;;;;;;;;;11.80;34.00;;;;;;4358080;32;19988;-42
2021/11/03 12:40:35;;;;;;;;;;;11.70;34.00;;;;;;4345225;32;19990;-42
2021/11/03 12:43:19;;;;;;;;;;;11.80;34.20;;;;;;4357456;32;19989;-41
2021/11/03 12:45:51;;;;;;;;;;;11.70;34.30;;;;;;4345248;32;19977;-42
2021/11/03 12:48:24;;;;;;;;;;;11.70;34.40;;;;;;4357739;32;20101;-43
2021/11/03 12:50:51;;;;;;;;;;;11.70;34.50;;;;;;4358027;32;19975;-41
2021/11/03 12:53:21;;;;;;;;;;;11.60;34.50;;;;;;4358062;32;19966;-41
2021/11/03 12:55:50;;;;;;;;;;;11.60;34.60;;;;;;4357902;32;19970;-43
2021/11/03 12:58:37;;;;;;;;;;;11.60;34.70;;;;;;4357666;32;19992;-44
2021/11/03 13:01:15;;;;;;;;;;;11.60;34.60;;;;;;4345573;32;20042;-43
2021/11/03 13:03:46;;;;;;;;;;;11.50;34.60;;;;;;4345106;32;20029;-43
2021/11/03 13:06:12;;;;;;;;;;;11.40;34.50;;;;;;4333110;32;20059;-44
2021/11/03 13:08:41;;;;;;;;;;;11.30;34.40;;;;;;4345282;32;19966;-42
2021/11/03 13:11:19;;;;;;;;;;;11.20;34.30;;;;;;4357764;32;20067;-43
2021/11/03 13:13:53;;;;;;;;;;;11.10;34.40;;;;;;4357327;32;20431;-41
2021/11/03 13:16:24;;;;;;;;;;;11.00;34.20;;;;;;4357499;32;20049;-42
2021/11/03 13:18:51;;;;;;;;;;;10.80;34.30;;;;;;4373706;32;20006;-42
2021/11/03 13:21:34;;;;;;;;;;;10.70;34.50;;;;;;4374296;32;19970;-42
2021/11/03 13:24:08;;;;;;;;;;;10.60;34.60;;;;;;4362280;32;19966;-38
2021/11/03 13:26:35;;;;;;;;;;;10.50;34.70;;;;;;4349297;32;19958;-41
2021/11/03 13:29:03;;;;;;;;;;;10.40;34.70;;;;;;4361120;32;19986;-43
2021/11/03 13:31:41;;;;;;;;;;;10.30;34.90;;;;;;4360911;32;19980;-43
2021/11/03 13:34:10;;;;;;;;;;;10.20;34.90;;;;;;4374424;32;20043;-43
2021/11/03 13:36:36;;;;;;;;;;;10.10;35.00;;;;;;4374634;32;19974;-42
2021/11/03 13:39:26;;;;;;;;;;;10.00;35.00;;;;;;4374309;32;19970;-42
2021/11/03 13:41:52;;;;;;;;;;;9.90;35.70;;;;;;4374323;32;19966;-43
2021/11/03 13:44:31;;;;;;;;;;;9.90;35.10;;;;;;4360448;32;19989;-42
2021/11/03 13:46:58;;;;;;;;;;;9.80;35.10;;;;;;4388533;32;19981;-43
2021/11/03 13:49:27;;;;;;;;;;;9.70;35.00;;;;;;4389425;32;19957;-42
2021/11/03 13:52:17;;;;;;;;;;;9.70;35.00;;;;;;4389167;32;19969;-44
2021/11/03 13:54:54;;;;;;;;;;;9.60;35.00;;;;;;4375304;32;20017;-43
2021/11/03 13:57:32;;;;;;;;;;;9.50;34.80;;;;;;4375290;32;20050;-43
2021/11/03 14:00:00;;;;;;;;;;;9.40;34.70;;;;;;4389177;32;19961;-43
2021/11/03 14:02:35;;;;;;;;;;;9.30;34.70;;;;;;4389270;32;19961;-46
2021/11/03 14:05:36;;;;;;;;;;;9.30;34.80;;;;;;4389476;32;19970;-45
2021/11/03 14:08:02;;;;;;;;;;;9.30;34.90;;;;;;4367489;32;20466;-43
2021/11/03 14:10:30;;;;;;;;;;;9.20;34.80;;;;;;4375291;32;19995;-43
2021/11/03 14:12:56;;;;;;;;;;;9.10;34.80;;;;;;4388615;32;20036;-43
2021/11/03 14:15:22;;;;;;;;;;;9.00;34.40;;;;;;4374449;32;19973;-43
2021/11/03 14:17:49;;;;;;;;;;;8.90;34.50;;;;;;4387902;32;19969;-43
2021/11/03 14:20:20;;;;;;;;;;;8.90;34.60;;;;;;4355460;32;20119;-43
2021/11/03 14:22:47;;;;;;;;;;;8.90;34.60;;;;;;4343828;32;19981;-44
2021/11/03 14:25:34;;;;;;;;;;;8.80;34.20;;;;;;4355749;32;20124;-42
2021/11/03 14:28:03;;;;;;;;;;;8.70;34.10;;;;;;4355944;32;20387;-43
2021/11/03 14:30:33;;;;;;;;;;;8.70;34.10;;;;;;4356020;32;20427;-43
2021/11/03 14:33:00;;;;;;;;;;;8.70;34.00;;;;;;4344577;32;20431;-43
2021/11/03 14:35:28;;;;;;;;;;;8.60;34.00;;;;;;4355775;32;19982;-42
2021/11/03 14:37:56;;;;;;;;;;;8.60;33.90;;;;;;4356378;32;19994;-43